Kezdőlap
METAR-TAF:

METAR-TAF

Repülőterek :

Eliszta, Oroszország

földrajzi szélesség: 46-22N, földrajzi hosszúság: 044-20E, magasság: 150 m

Jelenlegi meteorológiai megfigyelések

A jelentés 18 perccel ezelõtt készült, 21:30 UTC
Dél-délnyugati szél 8 kt
Hőmérséklet 1°C
Páratartalom 80%
Légköri nyomás 1020 hPa
Látótávolság 10 km, vagy több

METAR: URWI 182130Z AUTO 20004MPS 9999 // ///039/// 01/M02 Q1020

Idő: 00:48 (21:48 UTC)

Előrejelzés

A jelentés 10 órával és 48 perccel ezelõtt készült, 11:00 UTC
Az előrejelzés 18-én 12 óra UTC és 18-én 21 óra UTC között érvényes
Délnyugati szél 10 kt széllökések: 19 kt
Látótávolság 10 km, vagy több
Szórványos felhőzet 1100 lábon
18-én 15 óra UTC és 18-én 17 óra UTC között fokozatosan kialakuló
Látótávolság: 3100 m
Párásság

TAF: URWI 181100Z 1812/1821 23005G10MPS 9999 SCT011 BECMG 1815/1817 3100 BR

Meteorológiai megfigyelések és előrejelzések több, mint 4000 repülőtéren (METAR és TAF jelentéseket).

A térképen piros és sárga pontok jelzik az elérhető meteorológiai állomásokat.

Mozgassa az egeret a pont fölött, hogy megjelenjen az állomás neve.

Azután kattintson az időjárási megfigyelések és előrejelzések megtekintéséhez.

A térkép megváltoztatása: kattintson a fekete keresztel jelölt zöld gombra ráközelítéshez, a vonallal jelölt zöld gombra távolításhoz, vagy a zöld nyilakra a szomszédos térképek eléréséhez.


METAR-TAF: